Time;durP1;ratioP1;P1;durP2;ratioP2;P2;SDS_P1;SDS_P2;PMS_P1;PMS_P2;Temp;Humidity;BMP_temperature;BMP_pressure;BME280_temperature;BME280_humidity;BME280_pressure;Samples;Min_cycle;Max_cycle;Signal;HPM_P1;HPM_P2
2021/12/24 00:00:28;;;;;;;3.55;2.33;;;19.40;70.30;;;;;;3880428;22;20023;-86
2021/12/24 00:02:00;;;;;;;2.75;2.40;;;19.40;69.70;;;;;;3882196;23;20012;-86
2021/12/24 00:03:32;;;;;;;2.45;2.20;;;19.40;69.80;;;;;;3881014;22;20020;-85
2021/12/24 00:05:04;;;;;;;2.90;2.40;;;19.50;69.70;;;;;;3881966;22;20247;-87
2021/12/24 00:06:36;;;;;;;2.83;2.40;;;19.40;70.10;;;;;;3881979;22;20086;-87
2021/12/24 00:08:09;;;;;;;2.90;2.13;;;19.40;70.10;;;;;;3882073;22;20020;-86
2021/12/24 00:09:40;;;;;;;3.17;2.40;;;19.40;70.10;;;;;;3881987;22;20020;-86
2021/12/24 00:11:13;;;;;;;3.08;2.50;;;19.40;70.20;;;;;;3881704;22;20012;-86
2021/12/24 00:12:49;;;;;;;4.75;2.55;;;19.40;70.30;;;;;;3882271;23;20396;-86
2021/12/24 00:14:22;;;;;;;2.70;2.42;;;19.40;70.20;;;;;;3880963;22;20043;-86
2021/12/24 00:16:03;;;;;;;2.95;2.25;;;19.50;70.00;;;;;;3879809;22;20020;-86
2021/12/24 00:17:37;;;;;;;3.28;2.30;;;19.40;70.10;;;;;;3881610;23;20042;-85
2021/12/24 00:19:19;;;;;;;2.58;2.20;;;19.40;70.30;;;;;;3881616;22;20020;-86
2021/12/24 00:35:52;;;;;;;3.05;2.33;;;19.40;70.50;;;;;;3836810;23;20068;-87
2021/12/24 00:37:23;;;;;;;4.03;2.25;;;19.40;69.80;;;;;;3881392;22;20028;-85
2021/12/24 00:38:54;;;;;;;3.30;2.47;;;19.50;70.20;;;;;;3881209;23;20510;-86
2021/12/24 00:40:28;;;;;;;6.45;2.28;;;19.40;70.10;;;;;;3880581;22;20099;-87
2021/12/24 00:42:00;;;;;;;2.92;2.00;;;19.40;70.10;;;;;;3879933;22;20016;-86
2021/12/24 00:43:32;;;;;;;2.38;2.00;;;19.50;70.00;;;;;;3880847;22;20095;-86
2021/12/24 00:45:03;;;;;;;2.50;1.98;;;19.40;70.20;;;;;;3879539;22;20510;-87
2021/12/24 00:46:35;;;;;;;2.22;1.90;;;19.50;70.20;;;;;;3879782;22;20354;-87
2021/12/24 00:48:07;;;;;;;2.38;2.17;;;19.50;70.30;;;;;;3880881;23;20020;-87
2021/12/24 00:49:38;;;;;;;2.13;1.88;;;19.50;70.30;;;;;;3878776;22;20020;-86
2021/12/24 00:51:22;;;;;;;2.70;2.10;;;19.40;70.60;;;;;;3881093;22;20016;-86
2021/12/24 00:52:58;;;;;;;2.58;1.88;;;19.40;70.70;;;;;;3880863;23;20028;-87
2021/12/24 00:56:19;;;;;;;2.28;1.83;;;19.40;70.70;;;;;;3881188;23;20020;-86
2021/12/24 00:57:52;;;;;;;2.80;2.17;;;19.40;70.90;;;;;;3881150;23;20032;-86
2021/12/24 00:59:23;;;;;;;2.00;1.80;;;19.40;70.70;;;;;;3880145;22;20024;-87
2021/12/24 01:00:55;;;;;;;2.55;1.92;;;19.40;70.30;;;;;;3879663;22;20024;-86
2021/12/24 01:02:27;;;;;;;2.25;1.90;;;19.50;70.10;;;;;;3881133;23;20070;-87
2021/12/24 01:03:59;;;;;;;3.08;2.20;;;19.50;69.80;;;;;;3881887;22;20016;-86
2021/12/24 01:05:31;;;;;;;2.35;1.70;;;19.40;70.30;;;;;;3880225;22;20111;-86
2021/12/24 01:07:02;;;;;;;2.33;1.83;;;19.50;70.10;;;;;;3880043;23;20016;-86
2021/12/24 01:08:34;;;;;;;2.17;1.80;;;19.50;70.10;;;;;;3881311;23;20016;-86
2021/12/24 01:10:06;;;;;;;4.33;1.70;;;19.50;70.10;;;;;;3880199;22;20096;-86
2021/12/24 01:11:39;;;;;;;2.45;1.90;;;19.50;70.50;;;;;;3881166;22;20297;-86
2021/12/24 01:13:12;;;;;;;2.92;2.13;;;19.50;70.60;;;;;;3880752;22;20048;-86
2021/12/24 01:14:47;;;;;;;1.70;1.60;;;19.40;70.60;;;;;;3879986;22;20016;-87
2021/12/24 01:16:25;;;;;;;2.70;1.90;;;19.40;70.60;;;;;;3880268;22;20070;-86
2021/12/24 01:18:03;;;;;;;2.10;1.90;;;19.50;70.40;;;;;;3880706;23;20027;-87
2021/12/24 01:19:38;;;;;;;2.65;2.00;;;19.40;70.30;;;;;;3880186;22;20363;-86
2021/12/24 01:21:23;;;;;;;1.92;1.73;;;19.50;70.30;;;;;;3880991;22;20515;-87
2021/12/24 01:24:55;;;;;;;2.00;1.75;;;19.50;70.20;;;;;;3880734;22;20063;-87
2021/12/24 01:26:33;;;;;;;2.00;1.80;;;19.40;70.50;;;;;;3881068;23;20016;-87
2021/12/24 01:37:51;;;;;;;1.70;1.60;;;19.40;70.60;;;;;;3879039;22;20026;-87
2021/12/24 01:41:04;;;;;;;2.00;1.70;;;19.50;69.60;;;;;;3872069;22;20027;-90
2021/12/24 01:42:44;;;;;;;1.77;1.60;;;19.40;69.50;;;;;;3872491;23;20024;-89
2021/12/24 01:44:18;;;;;;;2.95;2.03;;;19.40;69.30;;;;;;3872453;22;20016;-89
2021/12/24 01:45:51;;;;;;;2.65;1.80;;;19.40;69.40;;;;;;3870387;22;20024;-88
2021/12/24 01:47:23;;;;;;;2.10;1.90;;;19.50;69.30;;;;;;3873649;23;20370;-88
2021/12/24 01:48:55;;;;;;;2.17;1.80;;;19.50;69.10;;;;;;3873373;22;20085;-88
2021/12/24 01:50:28;;;;;;;1.63;1.52;;;19.50;69.20;;;;;;3872930;22;20052;-88
2021/12/24 01:52:02;;;;;;;2.15;1.70;;;19.50;69.20;;;;;;3873758;22;20028;-88
2021/12/24 01:53:36;;;;;;;1.80;1.60;;;19.50;69.20;;;;;;3873106;22;20024;-89
2021/12/24 01:55:09;;;;;;;1.80;1.60;;;19.50;69.50;;;;;;3873119;22;20027;-89
2021/12/24 01:56:40;;;;;;;1.60;1.50;;;19.50;70.00;;;;;;3873307;22;20520;-88
2021/12/24 01:58:12;;;;;;;2.00;1.60;;;19.50;69.60;;;;;;3873695;22;20024;-88
2021/12/24 01:59:45;;;;;;;1.83;1.48;;;19.50;69.30;;;;;;3873192;22;20027;-89
2021/12/24 02:01:17;;;;;;;1.88;1.70;;;19.50;69.50;;;;;;3873109;22;20117;-89
2021/12/24 02:02:49;;;;;;;2.45;1.50;;;19.50;69.80;;;;;;3873782;22;20020;-89
2021/12/24 02:04:21;;;;;;;1.75;1.65;;;19.50;70.00;;;;;;3873873;22;20032;-89
2021/12/24 02:05:53;;;;;;;1.70;1.55;;;19.50;69.80;;;;;;3875032;22;20024;-89
2021/12/24 02:07:25;;;;;;;2.22;1.60;;;19.50;69.10;;;;;;3874248;22;20381;-88
2021/12/24 02:08:57;;;;;;;2.55;1.83;;;19.50;69.10;;;;;;3875230;22;20031;-89
2021/12/24 02:10:29;;;;;;;1.80;1.70;;;19.50;69.20;;;;;;3874558;22;20024;-88
2021/12/24 02:12:00;;;;;;;1.80;1.50;;;19.50;69.70;;;;;;3874921;22;20019;-89
2021/12/24 02:13:32;;;;;;;1.70;1.60;;;19.50;69.20;;;;;;3874040;22;20020;-89
2021/12/24 02:15:08;;;;;;;2.55;1.63;;;19.50;69.10;;;;;;3874124;22;20028;-89
2021/12/24 02:16:53;;;;;;;2.10;1.65;;;19.50;68.70;;;;;;3874142;22;20095;-88
2021/12/24 02:29:42;;;;;;;1.60;1.45;;;19.50;70.30;;;;;;3873961;22;20036;-89
2021/12/24 02:31:16;;;;;;;1.90;1.50;;;19.50;69.70;;;;;;3873965;22;20451;-90
2021/12/24 02:32:47;;;;;;;3.00;1.73;;;19.50;69.30;;;;;;3874399;22;20031;-89
2021/12/24 02:34:19;;;;;;;2.55;1.40;;;19.50;69.40;;;;;;3873882;22;20077;-88
2021/12/24 02:35:52;;;;;;;1.98;1.63;;;19.50;69.30;;;;;;3874984;22;20488;-89
2021/12/24 02:37:24;;;;;;;1.67;1.45;;;19.50;69.60;;;;;;3874125;22;20691;-88
2021/12/24 02:38:56;;;;;;;1.52;1.40;;;19.50;70.00;;;;;;3874958;22;20028;-90
2021/12/24 02:40:28;;;;;;;1.67;1.40;;;19.50;69.80;;;;;;3873874;22;20016;-90
2021/12/24 02:42:10;;;;;;;1.83;1.58;;;19.50;70.10;;;;;;3874442;22;20020;-89
2021/12/24 02:43:42;;;;;;;1.33;1.23;;;19.50;70.40;;;;;;3874580;22;20082;-89
2021/12/24 02:45:14;;;;;;;1.55;1.13;;;19.50;70.40;;;;;;3873207;22;20071;-88
2021/12/24 02:47:08;;;;;;;1.85;1.63;;;19.50;69.80;;;;;;3875100;22;20074;-88
2021/12/24 02:49:02;;;;;;;2.20;1.60;;;19.50;69.50;;;;;;3874154;22;20078;-88
2021/12/24 02:54:23;;;;;;;1.65;1.50;;;19.50;70.10;;;;;;3873146;22;20631;-89
2021/12/24 02:55:54;;;;;;;1.50;1.40;;;19.50;70.10;;;;;;3874478;22;20024;-89
2021/12/24 02:57:28;;;;;;;1.52;1.30;;;19.50;70.20;;;;;;3874767;22;20745;-87
2021/12/24 02:59:00;;;;;;;1.40;1.30;;;19.50;70.30;;;;;;3874366;22;20039;-88
2021/12/24 03:00:32;;;;;;;1.50;1.40;;;19.50;70.00;;;;;;3872288;22;20526;-89
2021/12/24 03:02:04;;;;;;;1.75;1.65;;;19.50;69.80;;;;;;3874397;22;20016;-88
2021/12/24 03:03:36;;;;;;;1.40;1.30;;;19.50;69.60;;;;;;3873332;22;20024;-89
2021/12/24 03:05:08;;;;;;;1.30;1.20;;;19.50;69.20;;;;;;3873441;22;20397;-89
2021/12/24 03:06:41;;;;;;;1.30;1.20;;;19.50;69.60;;;;;;3874127;22;20016;-89
2021/12/24 03:08:14;;;;;;;;;;;19.50;70.00;;;;;;3875109;22;20020;-88
2021/12/24 03:09:46;;;;;;;1.60;1.27;;;19.50;69.80;;;;;;3873607;22;19973;-89
2021/12/24 03:11:18;;;;;;;1.42;1.33;;;19.50;70.20;;;;;;3873844;22;20022;-89
2021/12/24 03:12:51;;;;;;;1.48;1.38;;;19.50;70.50;;;;;;3873860;22;20093;-88
2021/12/24 03:14:23;;;;;;;1.50;1.40;;;19.50;70.40;;;;;;3873671;22;20020;-89
2021/12/24 03:15:55;;;;;;;1.73;1.40;;;19.50;69.80;;;;;;3873810;22;20019;-89
2021/12/24 03:17:27;;;;;;;3.47;1.33;;;19.50;69.70;;;;;;3873626;22;20103;-89
2021/12/24 03:18:58;;;;;;;1.65;1.30;;;19.50;69.90;;;;;;3874580;22;20016;-88
2021/12/24 03:20:34;;;;;;;1.40;1.30;;;19.50;70.10;;;;;;3873656;22;20089;-89
2021/12/24 03:22:14;;;;;;;1.58;1.38;;;19.50;69.90;;;;;;3874128;22;20111;-88
2021/12/24 03:24:33;;;;;;;1.77;1.42;;;19.50;70.20;;;;;;3873705;22;20107;-89
2021/12/24 03:25:39;;;;;;;2.17;1.40;;;19.50;70.40;;;;;;3873755;22;20050;-88
2021/12/24 03:27:12;;;;;;;1.60;1.50;;;19.50;69.20;;;;;;3874528;22;20335;-88
2021/12/24 03:28:44;;;;;;;2.85;1.58;;;19.50;69.10;;;;;;3874169;22;20630;-88
2021/12/24 03:30:16;;;;;;;1.63;1.52;;;19.50;68.70;;;;;;3872798;22;20463;-89
2021/12/24 03:31:47;;;;;;;1.48;1.38;;;19.50;68.60;;;;;;3874024;22;20319;-88
2021/12/24 03:33:18;;;;;;;1.80;1.35;;;19.50;69.10;;;;;;3873575;22;20023;-89
2021/12/24 03:34:50;;;;;;;1.30;1.20;;;19.50;69.10;;;;;;3873096;22;20267;-89
2021/12/24 03:36:23;;;;;;;1.40;1.30;;;19.50;69.30;;;;;;3874228;22;20095;-89
2021/12/24 03:37:54;;;;;;;1.20;1.10;;;19.50;69.80;;;;;;3873995;22;20020;-88
2021/12/24 03:39:27;;;;;;;1.30;1.20;;;19.50;70.10;;;;;;3873602;22;20020;-89
2021/12/24 03:40:58;;;;;;;1.45;1.30;;;19.50;70.40;;;;;;3873530;22;20012;-90
2021/12/24 03:42:31;;;;;;;1.33;1.23;;;19.50;70.50;;;;;;3874232;22;20378;-89
2021/12/24 03:44:03;;;;;;;2.00;1.20;;;19.50;70.20;;;;;;3873720;22;20574;-89
2021/12/24 03:45:41;;;;;;;1.13;1.02;;;19.50;69.50;;;;;;3872754;22;20042;-89
2021/12/24 03:47:16;;;;;;;7.10;1.63;;;19.50;69.60;;;;;;3873542;22;20024;-90
2021/12/24 03:48:54;;;;;;;1.33;1.23;;;19.50;69.60;;;;;;3874300;22;20024;-89
2021/12/24 03:50:41;;;;;;;1.30;1.20;;;19.50;69.80;;;;;;3873367;22;20043;-88
2021/12/24 03:52:34;;;;;;;1.17;1.00;;;19.50;70.20;;;;;;3874798;22;20070;-88
2021/12/24 03:55:56;;;;;;;1.20;1.10;;;19.50;69.50;;;;;;3873838;22;19947;-89
2021/12/24 03:57:28;;;;;;;1.20;1.10;;;19.50;69.60;;;;;;3873809;22;20016;-88
2021/12/24 03:59:00;;;;;;;1.33;1.23;;;19.50;69.30;;;;;;3874303;22;20020;-88
2021/12/24 04:00:32;;;;;;;1.35;1.20;;;19.50;70.40;;;;;;3872647;22;20024;-89
2021/12/24 04:02:04;;;;;;;1.85;1.30;;;19.50;69.90;;;;;;3873939;22;20087;-89
2021/12/24 04:03:35;;;;;;;1.17;1.08;;;19.50;69.30;;;;;;3872619;22;20086;-88
2021/12/24 04:05:08;;;;;;;1.33;1.10;;;19.50;69.00;;;;;;3873439;22;20150;-88
2021/12/24 04:06:39;;;;;;;1.10;1.00;;;19.50;68.80;;;;;;3874157;22;20020;-88
2021/12/24 04:08:10;;;;;;;2.33;1.30;;;19.50;69.00;;;;;;3873950;22;20455;-88
2021/12/24 04:09:49;;;;;;;1.50;1.40;;;19.50;69.00;;;;;;3872921;22;20120;-88
2021/12/24 04:11:22;;;;;;;1.27;1.10;;;19.50;68.90;;;;;;3874277;22;20035;-88
2021/12/24 04:12:54;;;;;;;1.33;1.23;;;19.50;68.70;;;;;;3873431;22;20024;-89
2021/12/24 04:14:26;;;;;;;1.40;1.30;;;19.50;69.10;;;;;;3872235;22;20070;-88
2021/12/24 04:15:58;;;;;;;1.33;1.20;;;19.50;69.40;;;;;;3872866;22;20024;-89
2021/12/24 04:17:32;;;;;;;1.70;1.48;;;19.50;69.30;;;;;;3874752;22;20016;-89
2021/12/24 04:19:22;;;;;;;1.20;1.10;;;19.50;69.40;;;;;;3874155;22;20026;-88
2021/12/24 04:26:26;;;;;;;1.52;1.30;;;19.50;69.30;;;;;;3865782;22;20046;-89
2021/12/24 04:27:59;;;;;;;1.30;1.20;;;19.50;68.90;;;;;;3875054;22;20020;-88
2021/12/24 04:29:31;;;;;;;1.58;1.25;;;19.50;69.80;;;;;;3873836;22;20477;-89
2021/12/24 04:31:03;;;;;;;1.65;1.23;;;19.50;69.90;;;;;;3873942;22;20026;-88
2021/12/24 04:32:49;;;;;;;1.17;1.08;;;19.50;70.20;;;;;;3873294;22;20020;-89
2021/12/24 04:34:26;;;;;;;0.98;0.95;;;19.60;70.20;;;;;;3872766;22;20024;-89
2021/12/24 04:36:01;;;;;;;1.40;1.10;;;19.50;70.30;;;;;;3874821;22;20024;-89
2021/12/24 04:38:08;;;;;;;1.33;1.20;;;19.50;70.50;;;;;;3873963;22;20043;-90
2021/12/24 04:39:50;;;;;;;0.95;0.90;;;19.50;70.50;;;;;;3873171;22;20032;-88
2021/12/24 04:52:39;;;;;;;1.13;1.00;;;19.50;70.30;;;;;;3874278;23;20016;-88
2021/12/24 05:01:37;;;;;;;1.30;1.20;;;19.50;70.50;;;;;;3874099;22;20020;-89
2021/12/24 05:03:12;;;;;;;1.10;1.00;;;19.50;70.50;;;;;;3873004;22;20711;-90
2021/12/24 05:04:49;;;;;;;1.10;1.00;;;19.60;70.40;;;;;;3873993;22;20020;-88
2021/12/24 05:06:32;;;;;;;1.00;0.90;;;19.60;70.40;;;;;;3874888;22;20459;-90
2021/12/24 05:09:52;;;;;;;1.23;1.00;;;19.60;70.30;;;;;;3874344;22;20022;-89
2021/12/24 05:11:24;;;;;;;1.08;0.98;;;19.60;70.60;;;;;;3874432;22;20077;-90
2021/12/24 05:12:55;;;;;;;1.00;0.90;;;19.60;70.30;;;;;;3873015;22;20016;-89
2021/12/24 05:14:30;;;;;;;1.95;1.00;;;19.60;70.30;;;;;;3873446;22;20094;-89
2021/12/24 05:16:13;;;;;;;1.52;1.10;;;19.60;69.90;;;;;;3872737;22;20078;-88
2021/12/24 05:18:04;;;;;;;1.20;1.10;;;19.60;69.90;;;;;;3873682;22;20045;-89
2021/12/24 05:21:33;;;;;;;1.33;1.10;;;19.60;70.10;;;;;;3873833;23;20016;-89
2021/12/24 05:23:05;;;;;;;1.10;0.98;;;19.60;70.30;;;;;;3873140;22;20028;-88
2021/12/24 05:24:36;;;;;;;1.10;1.00;;;19.60;70.40;;;;;;3873575;22;20016;-90
2021/12/24 05:26:09;;;;;;;1.30;1.00;;;19.60;70.30;;;;;;3873762;22;20079;-89
2021/12/24 05:27:41;;;;;;;;;;;19.60;70.40;;;;;;3874101;22;20016;-89
2021/12/24 05:29:13;;;;;;;1.38;0.98;;;19.60;70.40;;;;;;3873107;22;20625;-90
2021/12/24 05:30:45;;;;;;;1.10;1.00;;;19.60;70.30;;;;;;3871864;22;20066;-88
2021/12/24 05:32:18;;;;;;;0.90;0.90;;;19.60;70.40;;;;;;3873944;22;20335;-89
2021/12/24 05:33:50;;;;;;;1.05;0.93;;;19.60;70.30;;;;;;3873700;22;20082;-88
2021/12/24 05:35:22;;;;;;;1.13;1.02;;;19.60;70.30;;;;;;3873000;22;20031;-89
2021/12/24 05:36:53;;;;;;;1.10;1.00;;;19.60;70.30;;;;;;3873876;22;20020;-89
2021/12/24 05:38:25;;;;;;;1.10;1.00;;;19.60;70.20;;;;;;3874686;22;20245;-89
2021/12/24 05:39:57;;;;;;;0.93;0.90;;;19.60;70.20;;;;;;3874479;22;20401;-89
2021/12/24 05:41:31;;;;;;;1.00;0.90;;;19.60;70.20;;;;;;3874127;22;20020;-89
2021/12/24 05:43:03;;;;;;;1.27;1.10;;;19.60;70.00;;;;;;3874041;22;20016;-89
2021/12/24 05:44:35;;;;;;;1.02;0.93;;;19.60;70.10;;;;;;3874423;22;20024;-88
2021/12/24 05:46:07;;;;;;;1.08;0.98;;;19.60;70.10;;;;;;3873752;22;20336;-88
2021/12/24 05:47:40;;;;;;;1.25;1.05;;;19.60;70.00;;;;;;3874391;22;20024;-88
2021/12/24 05:49:12;;;;;;;0.85;0.80;;;19.60;70.10;;;;;;3874372;22;20024;-89
2021/12/24 05:50:44;;;;;;;0.90;0.90;;;19.70;70.00;;;;;;3874920;22;20016;-87
2021/12/24 05:52:15;;;;;;;1.10;0.93;;;19.70;70.00;;;;;;3874410;22;20017;-88
2021/12/24 05:53:46;;;;;;;1.17;1.08;;;19.70;69.90;;;;;;3874076;22;20455;-88
2021/12/24 05:55:18;;;;;;;0.80;0.80;;;19.70;70.10;;;;;;3874589;22;20039;-88
2021/12/24 05:56:50;;;;;;;1.08;0.90;;;19.70;70.10;;;;;;3874311;22;20020;-88
2021/12/24 05:58:22;;;;;;;1.00;0.88;;;19.60;69.90;;;;;;3874323;22;20046;-89
2021/12/24 05:59:54;;;;;;;0.80;0.80;;;19.70;69.80;;;;;;3874394;22;20020;-89
2021/12/24 06:01:25;;;;;;;1.00;0.90;;;19.70;69.60;;;;;;3873562;22;20476;-89
2021/12/24 06:02:59;;;;;;;1.00;0.88;;;19.70;69.60;;;;;;3874093;22;20050;-89
2021/12/24 06:04:30;;;;;;;1.17;1.08;;;19.70;69.60;;;;;;3873967;22;20020;-88
2021/12/24 06:06:02;;;;;;;1.05;0.88;;;19.70;69.60;;;;;;3874510;22;20463;-89
2021/12/24 06:07:34;;;;;;;1.35;0.85;;;19.70;69.50;;;;;;3874874;22;20024;-88
2021/12/24 06:09:06;;;;;;;1.00;0.73;;;19.70;69.40;;;;;;3874520;22;20077;-89
2021/12/24 06:10:37;;;;;;;1.27;0.90;;;19.70;69.30;;;;;;3873249;22;20074;-89
2021/12/24 06:12:10;;;;;;;0.90;0.90;;;19.70;69.40;;;;;;3874493;22;20140;-88
2021/12/24 06:13:42;;;;;;;0.85;0.80;;;19.70;69.20;;;;;;3874133;22;20024;-88
2021/12/24 06:15:16;;;;;;;0.82;0.82;;;19.70;69.20;;;;;;3873140;22;20028;-88
2021/12/24 06:16:50;;;;;;;2.42;0.98;;;19.70;69.50;;;;;;3874595;22;20031;-88
2021/12/24 06:18:26;;;;;;;0.80;0.70;;;19.70;69.30;;;;;;3874708;22;20035;-89
2021/12/24 06:19:57;;;;;;;0.80;0.80;;;19.70;69.30;;;;;;3874512;22;20597;-89
2021/12/24 06:21:29;;;;;;;1.10;0.82;;;19.70;69.10;;;;;;3874068;22;20017;-88
2021/12/24 06:23:02;;;;;;;1.00;0.90;;;19.70;69.30;;;;;;3874283;22;20073;-88
2021/12/24 06:24:34;;;;;;;0.80;0.80;;;19.70;69.20;;;;;;3874416;22;20078;-88
2021/12/24 06:26:06;;;;;;;0.82;0.82;;;19.70;69.10;;;;;;3874811;22;20091;-89
2021/12/24 06:27:38;;;;;;;0.98;0.90;;;19.70;69.00;;;;;;3874768;22;20020;-88
2021/12/24 06:29:09;;;;;;;0.70;0.70;;;19.70;69.10;;;;;;3873684;22;20054;-88
2021/12/24 06:30:42;;;;;;;0.80;0.80;;;19.70;69.10;;;;;;3873570;22;20039;-92
2021/12/24 06:32:14;;;;;;;;;;;19.70;69.00;;;;;;3874241;22;20082;-89
2021/12/24 06:33:47;;;;;;;0.95;0.90;;;19.80;68.10;;;;;;3874368;22;19923;-89
2021/12/24 06:35:19;;;;;;;0.70;0.70;;;19.70;67.80;;;;;;3875650;22;20020;-88
2021/12/24 06:36:53;;;;;;;1.10;0.93;;;19.80;66.90;;;;;;3874412;22;20062;-86
2021/12/24 06:38:25;;;;;;;0.80;0.80;;;19.80;66.70;;;;;;3874821;22;20024;-88
2021/12/24 06:39:56;;;;;;;1.67;0.80;;;19.80;66.30;;;;;;3874080;22;20020;-88
2021/12/24 06:41:28;;;;;;;1.15;0.80;;;19.80;66.80;;;;;;3875560;22;20024;-88
2021/12/24 06:43:00;;;;;;;0.95;0.70;;;19.80;67.00;;;;;;3873196;22;20394;-88
2021/12/24 06:44:32;;;;;;;1.08;0.90;;;19.80;66.80;;;;;;3874020;22;20355;-87
2021/12/24 06:46:10;;;;;;;0.90;0.70;;;19.90;66.30;;;;;;3874110;22;20020;-89
2021/12/24 06:47:41;;;;;;;1.17;0.70;;;19.90;66.80;;;;;;3874640;22;20039;-88
2021/12/24 06:49:15;;;;;;;1.02;0.73;;;19.90;67.50;;;;;;3873859;22;20026;-89
2021/12/24 06:50:47;;;;;;;0.95;0.75;;;19.90;66.30;;;;;;3875077;22;20439;-87
2021/12/24 06:52:18;;;;;;;1.88;0.85;;;19.90;67.60;;;;;;3874549;22;20020;-88
2021/12/24 06:53:50;;;;;;;1.55;0.90;;;19.90;67.40;;;;;;3874687;22;20016;-89
2021/12/24 06:55:22;;;;;;;1.08;0.80;;;19.90;66.80;;;;;;3873184;22;20447;-88
2021/12/24 06:56:54;;;;;;;0.77;0.65;;;19.90;66.90;;;;;;3875099;22;20386;-88
2021/12/24 06:58:26;;;;;;;1.17;0.80;;;19.90;67.20;;;;;;3874633;22;20177;-88
2021/12/24 06:59:57;;;;;;;1.80;0.70;;;19.90;66.90;;;;;;3873535;22;20016;-87
2021/12/24 07:01:29;;;;;;;1.42;0.70;;;19.90;66.20;;;;;;3872392;22;20447;-87
2021/12/24 07:03:01;;;;;;;1.17;0.70;;;19.90;66.70;;;;;;3874196;22;20012;-88
2021/12/24 07:04:34;;;;;;;1.08;0.77;;;19.90;66.60;;;;;;3874129;22;20152;-88
2021/12/24 07:06:06;;;;;;;1.25;0.70;;;20.00;66.70;;;;;;3874480;22;20459;-88
2021/12/24 07:07:38;;;;;;;1.33;0.70;;;20.00;66.40;;;;;;3874565;22;20028;-91
2021/12/24 07:09:10;;;;;;;1.45;0.60;;;20.00;66.30;;;;;;3874442;22;20021;-89
2021/12/24 07:10:43;;;;;;;1.47;0.70;;;20.00;65.30;;;;;;3876492;22;20398;-93
2021/12/24 07:12:15;;;;;;;3.30;1.05;;;20.00;65.30;;;;;;3873561;22;20334;-86
2021/12/24 07:13:47;;;;;;;4.20;0.90;;;20.00;64.80;;;;;;3873765;22;20020;-86
2021/12/24 07:15:22;;;;;;;2.53;0.70;;;20.00;63.60;;;;;;3872642;22;20078;-87
2021/12/24 07:16:54;;;;;;;3.30;0.70;;;20.10;63.20;;;;;;3874601;22;20305;-87
2021/12/24 07:18:26;;;;;;;3.42;0.68;;;20.10;63.60;;;;;;3874459;22;20070;-87
2021/12/24 07:19:59;;;;;;;1.85;0.70;;;20.10;62.80;;;;;;3874024;22;20016;-88
2021/12/24 07:21:30;;;;;;;2.45;0.70;;;20.10;62.50;;;;;;3874614;22;20020;-87
2021/12/24 10:00:12;;;;;;;1.67;1.58;;;20.50;56.20;;;;;;3892465;22;20027;-88
2021/12/24 10:01:46;;;;;;;4.45;2.03;;;20.50;56.10;;;;;;3893238;22;20019;-87
2021/12/24 10:03:28;;;;;;;4.82;2.35;;;20.50;55.20;;;;;;3893544;22;20611;-87
2021/12/24 10:05:00;;;;;;;3.55;2.20;;;20.60;56.30;;;;;;3893516;22;20065;-90
2021/12/24 10:06:32;;;;;;;3.70;2.38;;;20.50;56.70;;;;;;3893166;22;20045;-90
2021/12/24 10:08:06;;;;;;;8.63;2.85;;;20.50;56.70;;;;;;3893553;22;20074;-89
2021/12/24 10:09:39;;;;;;;4.57;2.70;;;20.50;56.70;;;;;;3893337;22;20020;-89
2021/12/24 10:11:13;;;;;;;5.05;2.40;;;20.50;56.80;;;;;;3894294;22;20023;-89
2021/12/24 10:12:45;;;;;;;9.38;2.97;;;20.60;56.80;;;;;;3893473;22;20011;-89
2021/12/24 10:14:18;;;;;;;6.43;3.13;;;20.60;56.70;;;;;;3893777;22;20099;-89
2021/12/24 10:15:52;;;;;;;4.50;2.70;;;20.60;56.80;;;;;;3893343;22;20019;-88
2021/12/24 10:17:25;;;;;;;6.45;3.15;;;20.60;56.80;;;;;;3894586;22;20025;-89
2021/12/24 10:18:57;;;;;;;6.50;2.88;;;20.60;56.70;;;;;;3894549;22;20020;-92
2021/12/24 10:20:29;;;;;;;6.32;3.00;;;20.60;56.80;;;;;;3893243;22;20047;-89
2021/12/24 10:22:03;;;;;;;6.65;3.45;;;20.60;56.80;;;;;;3894405;22;20015;-92
2021/12/24 10:23:52;;;;;;;7.93;3.35;;;20.60;56.80;;;;;;3893794;22;20039;-89
2021/12/24 10:25:24;;;;;;;10.25;3.60;;;20.60;56.70;;;;;;3893919;22;20024;-89
2021/12/24 10:26:57;;;;;;;13.73;3.45;;;20.70;56.80;;;;;;3894026;22;20019;-89
2021/12/24 10:28:28;;;;;;;;;;;20.60;56.60;;;;;;3894645;22;20027;-90
2021/12/24 10:30:00;;;;;;;10.60;4.28;;;20.70;56.60;;;;;;3893401;22;20297;-88
2021/12/24 10:31:35;;;;;;;11.00;4.15;;;20.60;56.70;;;;;;3892985;22;20027;-90
2021/12/24 10:33:08;;;;;;;9.13;4.43;;;20.60;56.60;;;;;;3893832;22;20034;-88
2021/12/24 10:34:42;;;;;;;14.23;4.88;;;20.60;56.50;;;;;;3893446;22;20012;-88
2021/12/24 10:36:13;;;;;;;9.07;4.93;;;20.70;56.60;;;;;;3892106;22;20077;-87
2021/12/24 10:37:45;;;;;;;12.10;4.85;;;20.70;56.60;;;;;;3891807;22;20087;-88
2021/12/24 10:39:15;;;;;;;13.63;4.70;;;20.70;56.40;;;;;;3893063;22;20066;-87
2021/12/24 10:40:51;;;;;;;11.77;5.70;;;20.70;56.50;;;;;;3893410;22;20094;-88
2021/12/24 10:42:27;;;;;;;14.48;5.28;;;20.70;56.40;;;;;;3893786;22;20023;-88
2021/12/24 10:43:59;;;;;;;14.82;5.50;;;20.70;56.30;;;;;;3893054;22;20106;-89
2021/12/24 10:45:32;;;;;;;12.63;5.18;;;20.70;56.20;;;;;;3891426;22;20023;-88
2021/12/24 10:47:08;;;;;;;16.45;5.82;;;20.70;56.10;;;;;;3893223;22;20019;-88
2021/12/24 10:48:46;;;;;;;13.63;5.40;;;20.70;56.10;;;;;;3893578;22;20020;-89
2021/12/24 10:50:29;;;;;;;12.60;5.20;;;20.70;56.20;;;;;;3893318;22;20019;-88
2021/12/24 10:52:13;;;;;;;13.20;5.23;;;20.70;56.20;;;;;;3893837;22;20024;-88
2021/12/24 10:54:02;;;;;;;14.07;5.88;;;20.60;56.00;;;;;;3892963;22;20443;-88
2021/12/24 10:55:36;;;;;;;13.88;5.93;;;20.70;56.10;;;;;;3893111;22;20023;-88
2021/12/24 10:57:17;;;;;;;14.40;5.60;;;20.70;56.20;;;;;;3893431;22;20015;-88
2021/12/24 10:58:49;;;;;;;12.25;5.30;;;20.70;56.00;;;;;;3894023;22;20019;-88
2021/12/24 11:00:23;;;;;;;16.33;6.20;;;20.70;56.00;;;;;;3879659;22;20081;-88
2021/12/24 11:02:09;;;;;;;12.63;5.90;;;20.70;56.00;;;;;;3893707;22;20087;-88
2021/12/24 11:03:44;;;;;;;13.65;5.70;;;20.70;55.90;;;;;;3892701;22;20019;-88
2021/12/24 11:05:23;;;;;;;12.98;5.75;;;20.70;56.00;;;;;;3893437;22;20030;-88
2021/12/24 11:06:58;;;;;;;15.55;5.75;;;20.70;55.90;;;;;;3893276;22;20011;-88
2021/12/24 11:08:33;;;;;;;14.30;5.65;;;20.70;55.80;;;;;;3894359;22;20020;-88
2021/12/24 11:10:11;;;;;;;13.98;6.05;;;20.70;55.90;;;;;;3893382;22;20023;-88
2021/12/24 11:11:45;;;;;;;13.40;6.20;;;20.70;55.90;;;;;;3893966;22;20016;-89
2021/12/24 11:13:19;;;;;;;15.70;5.65;;;20.70;55.70;;;;;;3892962;22;20047;-88
2021/12/24 11:14:50;;;;;;;11.68;6.07;;;20.70;55.70;;;;;;3893996;22;20050;-89
2021/12/24 11:16:22;;;;;;;12.80;6.00;;;20.80;55.80;;;;;;3892725;22;20023;-88
2021/12/24 11:17:58;;;;;;;13.57;5.72;;;20.70;55.70;;;;;;3894506;22;20061;-89
2021/12/24 11:19:50;;;;;;;11.93;5.90;;;20.80;55.70;;;;;;3893873;22;20027;-89
2021/12/24 11:21:23;;;;;;;12.57;5.72;;;20.80;55.70;;;;;;3893789;22;20016;-88
2021/12/24 11:22:59;;;;;;;12.95;6.30;;;20.70;55.60;;;;;;3893692;22;20098;-90
2021/12/24 11:24:32;;;;;;;12.00;6.00;;;20.80;55.60;;;;;;3892753;22;20446;-90
2021/12/24 11:26:07;;;;;;;11.60;6.10;;;20.80;55.70;;;;;;3894001;22;20043;-89
2021/12/24 11:27:38;;;;;;;10.93;5.82;;;20.80;55.60;;;;;;3893995;22;20327;-91
2021/12/24 11:29:10;;;;;;;15.45;6.05;;;20.80;55.50;;;;;;3893057;22;20018;-88
2021/12/24 11:30:43;;;;;;;13.68;5.95;;;20.80;55.30;;;;;;3892909;22;20024;-89
2021/12/24 11:32:15;;;;;;;14.75;6.32;;;20.80;55.40;;;;;;3893882;22;20073;-88
2021/12/24 11:33:53;;;;;;;11.43;5.68;;;20.80;55.40;;;;;;3892978;22;20020;-88
2021/12/24 11:35:25;;;;;;;13.18;6.03;;;20.80;55.50;;;;;;3892783;22;20050;-89
2021/12/24 11:36:56;;;;;;;10.80;5.50;;;20.80;55.50;;;;;;3892940;22;20520;-87
2021/12/24 11:38:30;;;;;;;13.57;5.57;;;20.80;55.40;;;;;;3894199;22;20015;-89
2021/12/24 11:40:03;;;;;;;10.68;5.65;;;20.80;55.50;;;;;;3892906;22;20074;-88
2021/12/24 11:41:36;;;;;;;;;;;20.80;55.30;;;;;;3894403;22;20082;-88
2021/12/24 11:43:08;;;;;;;10.02;5.75;;;20.80;55.30;;;;;;3893082;22;20249;-89
2021/12/24 11:44:40;;;;;;;12.05;5.70;;;20.80;55.50;;;;;;3893086;22;20070;-88
2021/12/24 11:46:13;;;;;;;10.30;5.80;;;20.80;55.40;;;;;;3892990;22;20447;-89
2021/12/24 11:47:44;;;;;;;11.05;5.90;;;20.80;55.50;;;;;;3893614;22;20026;-88
2021/12/24 11:49:18;;;;;;;11.55;5.30;;;20.80;55.30;;;;;;3893763;22;20385;-88
2021/12/24 11:50:50;;;;;;;12.93;5.75;;;20.80;55.20;;;;;;3894050;22;20015;-88
2021/12/24 11:52:22;;;;;;;14.27;6.10;;;20.80;55.20;;;;;;3893267;22;20016;-89
2021/12/24 11:53:55;;;;;;;12.55;5.68;;;20.80;55.20;;;;;;3893406;22;20015;-88
2021/12/24 11:55:28;;;;;;;13.65;5.78;;;20.80;55.20;;;;;;3892696;22;20024;-89
2021/12/24 11:57:00;;;;;;;10.88;5.70;;;20.80;55.20;;;;;;3893161;22;20020;-89
2021/12/24 11:58:32;;;;;;;11.07;5.53;;;20.80;55.10;;;;;;3893801;22;20020;-88
2021/12/24 12:00:11;;;;;;;11.75;5.22;;;20.90;55.10;;;;;;3892691;22;20042;-88